sensor_id;sensor_type;location;lat;lon;timestamp;pressure;altitude;pressure_sealevel;temperature;humidity
63903;BME280;50072;50.678;13.938;2023-05-11T00:00:29;99328.03;;;11.17;97.22
63903;BME280;50072;50.678;13.938;2023-05-11T00:03:11;99326.59;;;11.07;96.82
63903;BME280;50072;50.678;13.938;2023-05-11T00:05:37;99319.94;;;11.18;96.44
63903;BME280;50072;50.678;13.938;2023-05-11T00:08:03;99320.97;;;11.14;96.29
63903;BME280;50072;50.678;13.938;2023-05-11T00:10:29;99321.69;;;11.19;96.65
63903;BME280;50072;50.678;13.938;2023-05-11T00:12:55;99314.41;;;11.25;96.41
63903;BME280;50072;50.678;13.938;2023-05-11T00:15:21;99316.88;;;11.31;96.85
63903;BME280;50072;50.678;13.938;2023-05-11T00:17:47;99318.63;;;11.32;96.55
63903;BME280;50072;50.678;13.938;2023-05-11T00:20:13;99316.97;;;11.28;96.60
63903;BME280;50072;50.678;13.938;2023-05-11T00:22:39;99309.09;;;11.23;97.05
63903;BME280;50072;50.678;13.938;2023-05-11T00:25:05;99311.84;;;11.20;97.18
63903;BME280;50072;50.678;13.938;2023-05-11T00:27:31;99310.19;;;11.16;96.98
63903;BME280;50072;50.678;13.938;2023-05-11T00:29:57;99304.59;;;11.23;96.97
63903;BME280;50072;50.678;13.938;2023-05-11T00:32:22;99312.63;;;11.23;96.52
63903;BME280;50072;50.678;13.938;2023-05-11T00:34:48;99319.94;;;11.18;96.56
63903;BME280;50072;50.678;13.938;2023-05-11T00:37:14;99317.31;;;11.17;96.70
63903;BME280;50072;50.678;13.938;2023-05-11T00:39:40;99312.94;;;11.14;97.21
63903;BME280;50072;50.678;13.938;2023-05-11T00:42:05;99310.19;;;11.16;97.18
63903;BME280;50072;50.678;13.938;2023-05-11T00:44:32;99303.88;;;11.18;96.95
63903;BME280;50072;50.678;13.938;2023-05-11T00:46:58;99299.47;;;11.17;96.89
63903;BME280;50072;50.678;13.938;2023-05-11T00:49:24;99305.63;;;11.19;96.97
63903;BME280;50072;50.678;13.938;2023-05-11T00:51:51;99300.72;;;11.32;97.13
63903;BME280;50072;50.678;13.938;2023-05-11T00:54:17;99308.03;;;11.27;97.26
63903;BME280;50072;50.678;13.938;2023-05-11T00:56:43;99305.41;;;11.26;97.17
63903;BME280;50072;50.678;13.938;2023-05-11T00:59:11;99317.66;;;11.33;97.21
63903;BME280;50072;50.678;13.938;2023-05-11T01:01:37;99309.75;;;11.30;97.39
63903;BME280;50072;50.678;13.938;2023-05-11T01:04:04;99309.09;;;11.23;97.58
63903;BME280;50072;50.678;13.938;2023-05-11T01:07:03;99313.25;;;11.05;99.01
63903;BME280;50072;50.678;13.938;2023-05-11T01:15:06;99313.63;;;10.93;99.63
63903;BME280;50072;50.678;13.938;2023-05-11T01:18:03;99314.13;;;10.77;100.00
63903;BME280;50072;50.678;13.938;2023-05-11T01:20:33;99310.72;;;10.72;100.00
63903;BME280;50072;50.678;13.938;2023-05-11T01:31:14;99323.53;;;10.91;100.00
63903;BME280;50072;50.678;13.938;2023-05-11T01:33:50;99317.09;;;10.96;100.00
63903;BME280;50072;50.678;13.938;2023-05-11T01:36:20;99322.03;;;11.09;100.00
63903;BME280;50072;50.678;13.938;2023-05-11T01:38:48;99318.22;;;11.17;99.88
63903;BME280;50072;50.678;13.938;2023-05-11T01:41:17;99321.81;;;11.16;100.00
63903;BME280;50072;50.678;13.938;2023-05-11T01:43:52;99320.47;;;11.30;99.76
63903;BME280;50072;50.678;13.938;2023-05-11T01:46:20;99310.63;;;11.30;99.65
63903;BME280;50072;50.678;13.938;2023-05-11T01:48:48;99315.84;;;11.35;99.62
63903;BME280;50072;50.678;13.938;2023-05-11T01:51:17;99316.75;;;11.34;99.50
63903;BME280;50072;50.678;13.938;2023-05-11T01:53:44;99317.25;;;11.45;99.21
63903;BME280;50072;50.678;13.938;2023-05-11T01:56:11;99319.94;;;11.45;98.55
63903;BME280;50072;50.678;13.938;2023-05-11T01:58:40;99323.72;;;11.39;99.68
63903;BME280;50072;50.678;13.938;2023-05-11T02:01:08;99330.72;;;11.44;99.22
63903;BME280;50072;50.678;13.938;2023-05-11T02:03:35;99330.50;;;11.50;99.52
63903;BME280;50072;50.678;13.938;2023-05-11T02:06:04;99327.88;;;11.48;99.70
63903;BME280;50072;50.678;13.938;2023-05-11T02:08:30;99313.66;;;11.46;100.00
63903;BME280;50072;50.678;13.938;2023-05-11T02:10:58;99323.50;;;11.46;100.00
63903;BME280;50072;50.678;13.938;2023-05-11T02:13:26;99323.53;;;11.44;100.00
63903;BME280;50072;50.678;13.938;2023-05-11T02:15:55;99329.75;;;11.46;100.00
63903;BME280;50072;50.678;13.938;2023-05-11T02:18:22;99324.38;;;11.46;100.00
63903;BME280;50072;50.678;13.938;2023-05-11T02:20:48;99332.78;;;11.35;100.00
63903;BME280;50072;50.678;13.938;2023-05-11T02:23:16;99329.94;;;11.40;100.00
63903;BME280;50072;50.678;13.938;2023-05-11T02:25:43;99330.72;;;11.44;100.00
63903;BME280;50072;50.678;13.938;2023-05-11T02:28:09;99330.03;;;11.37;100.00
63903;BME280;50072;50.678;13.938;2023-05-11T02:30:41;99330.72;;;11.44;100.00
63903;BME280;50072;50.678;13.938;2023-05-11T02:33:13;99323.41;;;11.49;100.00
63903;BME280;50072;50.678;13.938;2023-05-11T02:35:42;99330.31;;;11.56;100.00
63903;BME280;50072;50.678;13.938;2023-05-11T02:38:09;99327.47;;;11.61;100.00
63903;BME280;50072;50.678;13.938;2023-05-11T02:40:42;99330.94;;;11.63;100.00
63903;BME280;50072;50.678;13.938;2023-05-11T02:43:12;99321.13;;;11.63;99.81
63903;BME280;50072;50.678;13.938;2023-05-11T02:45:42;99327.47;;;11.61;100.00
63903;BME280;50072;50.678;13.938;2023-05-11T02:48:24;99334.66;;;11.58;99.27
63903;BME280;50072;50.678;13.938;2023-05-11T02:50:53;99334.78;;;11.55;99.48
63903;BME280;50072;50.678;13.938;2023-05-11T02:53:22;99336.53;;;11.56;98.40
63903;BME280;50072;50.678;13.938;2023-05-11T02:55:50;99332.94;;;11.57;97.76
63903;BME280;50072;50.678;13.938;2023-05-11T02:58:17;99333.03;;;11.54;97.88
63903;BME280;50072;50.678;13.938;2023-05-11T03:00:45;99336.63;;;11.53;97.47
63903;BME280;50072;50.678;13.938;2023-05-11T03:03:10;99333.00;;;11.56;96.89
63903;BME280;50072;50.678;13.938;2023-05-11T03:05:36;99331.78;;;11.65;95.46
63903;BME280;50072;50.678;13.938;2023-05-11T03:08:02;99330.94;;;11.63;95.57
63903;BME280;50072;50.678;13.938;2023-05-11T03:10:28;99337.75;;;11.73;94.78
63903;BME280;50072;50.678;13.938;2023-05-11T03:12:55;99345.06;;;11.68;94.28
63903;BME280;50072;50.678;13.938;2023-05-11T03:15:21;99339.38;;;11.77;94.12
63903;BME280;50072;50.678;13.938;2023-05-11T03:17:48;99339.38;;;11.77;94.74
63903;BME280;50072;50.678;13.938;2023-05-11T03:20:16;99343.72;;;11.81;94.57
63903;BME280;50072;50.678;13.938;2023-05-11T03:22:44;99345.56;;;11.79;94.50
63903;BME280;50072;50.678;13.938;2023-05-11T03:25:14;99345.47;;;11.82;93.75
63903;BME280;50072;50.678;13.938;2023-05-11T03:27:41;99341.03;;;11.81;93.76
63903;BME280;50072;50.678;13.938;2023-05-11T03:30:09;99335.56;;;11.84;92.44
63903;BME280;50072;50.678;13.938;2023-05-11T03:32:41;99342.63;;;11.87;92.25
63903;BME280;50072;50.678;13.938;2023-05-11T03:35:07;99340.88;;;11.86;91.80
63903;BME280;50072;50.678;13.938;2023-05-11T03:37:35;99339.88;;;11.88;91.72
63903;BME280;50072;50.678;13.938;2023-05-11T03:40:03;99349.41;;;11.99;91.49
63903;BME280;50072;50.678;13.938;2023-05-11T03:42:32;99336.56;;;12.07;90.29
63903;BME280;50072;50.678;13.938;2023-05-11T03:45:00;99347.28;;;12.07;88.63
63903;BME280;50072;50.678;13.938;2023-05-11T03:47:27;99355.81;;;12.18;88.57
63903;BME280;50072;50.678;13.938;2023-05-11T03:50:14;99357.34;;;12.25;88.57
63903;BME280;50072;50.678;13.938;2023-05-11T03:52:40;99352.56;;;12.34;88.05
63903;BME280;50072;50.678;13.938;2023-05-11T03:55:07;99353.28;;;12.39;88.09
63903;BME280;50072;50.678;13.938;2023-05-11T03:57:33;99351.81;;;12.54;87.32
63903;BME280;50072;50.678;13.938;2023-05-11T03:59:59;99353.25;;;12.64;88.65
63903;BME280;50072;50.678;13.938;2023-05-11T04:02:25;99352.13;;;12.70;88.24
63903;BME280;50072;50.678;13.938;2023-05-11T04:04:51;99352.75;;;12.76;88.04
63903;BME280;50072;50.678;13.938;2023-05-11T04:07:17;99353.63;;;12.77;87.28
63903;BME280;50072;50.678;13.938;2023-05-11T04:09:43;99351.88;;;12.76;86.46
63903;BME280;50072;50.678;13.938;2023-05-11T04:12:09;99344.56;;;12.80;86.79
63903;BME280;50072;50.678;13.938;2023-05-11T04:14:35;99351.41;;;12.88;84.01
63903;BME280;50072;50.678;13.938;2023-05-11T04:17:01;99353.13;;;12.89;83.58
63903;BME280;50072;50.678;13.938;2023-05-11T04:19:26;99354.16;;;13.09;81.95
63903;BME280;50072;50.678;13.938;2023-05-11T04:21:52;99358.28;;;13.18;79.47
63903;BME280;50072;50.678;13.938;2023-05-11T04:24:18;99362.25;;;13.29;79.20
63903;BME280;50072;50.678;13.938;2023-05-11T04:26:44;99357.28;;;13.42;78.22
63903;BME280;50072;50.678;13.938;2023-05-11T04:29:10;99358.91;;;13.46;77.09
63903;BME280;50072;50.678;13.938;2023-05-11T04:31:35;99356.22;;;13.46;77.05
63903;BME280;50072;50.678;13.938;2023-05-11T04:34:02;99363.16;;;13.52;76.11
63903;BME280;50072;50.678;13.938;2023-05-11T04:36:30;99368.44;;;13.55;76.52
63903;BME280;50072;50.678;13.938;2023-05-11T04:38:57;99365.19;;;13.68;75.37
63903;BME280;50072;50.678;13.938;2023-05-11T04:41:23;99370.63;;;13.66;75.23
63903;BME280;50072;50.678;13.938;2023-05-11T04:43:49;99366.03;;;13.70;75.69
63903;BME280;50072;50.678;13.938;2023-05-11T04:46:14;99371.69;;;13.84;73.83
63903;BME280;50072;50.678;13.938;2023-05-11T04:48:40;99374.38;;;13.84;73.92
63903;BME280;50072;50.678;13.938;2023-05-11T04:51:06;99370.47;;;13.91;72.45
63903;BME280;50072;50.678;13.938;2023-05-11T04:53:32;99376.41;;;14.00;72.09
63903;BME280;50072;50.678;13.938;2023-05-11T04:55:58;99374.03;;;14.12;72.72
63903;BME280;50072;50.678;13.938;2023-05-11T04:58:24;99378.78;;;14.26;71.08
63903;BME280;50072;50.678;13.938;2023-05-11T05:00:50;99378.16;;;14.40;70.77
63903;BME280;50072;50.678;13.938;2023-05-11T05:03:16;99374.38;;;14.44;70.73
63903;BME280;50072;50.678;13.938;2023-05-11T05:05:42;99375.56;;;14.58;67.65
63903;BME280;50072;50.678;13.938;2023-05-11T05:08:08;99380.09;;;14.57;67.37
63903;BME280;50072;50.678;13.938;2023-05-11T05:10:34;99372.25;;;14.72;66.64
63903;BME280;50072;50.678;13.938;2023-05-11T05:13:00;99375.25;;;14.65;66.91
63903;BME280;50072;50.678;13.938;2023-05-11T05:15:26;99385.00;;;14.68;67.49
63903;BME280;50072;50.678;13.938;2023-05-11T05:17:52;99379.47;;;14.71;66.75
63903;BME280;50072;50.678;13.938;2023-05-11T05:20:18;99382.44;;;14.65;67.82
63903;BME280;50072;50.678;13.938;2023-05-11T05:22:44;99377.66;;;14.72;66.74
63903;BME280;50072;50.678;13.938;2023-05-11T05:25:10;99381.34;;;14.69;66.83
63903;BME280;50072;50.678;13.938;2023-05-11T05:27:36;99385.94;;;14.67;65.47
63903;BME280;50072;50.678;13.938;2023-05-11T05:30:02;99384.28;;;14.83;64.60
63903;BME280;50072;50.678;13.938;2023-05-11T05:32:28;99378.84;;;14.85;66.13
63903;BME280;50072;50.678;13.938;2023-05-11T05:34:54;99386.09;;;14.83;65.98
63903;BME280;50072;50.678;13.938;2023-05-11T05:37:20;99393.47;;;14.98;65.46
63903;BME280;50072;50.678;13.938;2023-05-11T05:39:46;99399.78;;;14.97;65.84
63903;BME280;50072;50.678;13.938;2023-05-11T05:42:12;99389.00;;;14.97;64.93
63903;BME280;50072;50.678;13.938;2023-05-11T05:44:37;99394.56;;;14.94;66.27
63903;BME280;50072;50.678;13.938;2023-05-11T05:47:04;99396.38;;;14.94;66.61
63903;BME280;50072;50.678;13.938;2023-05-11T05:49:30;99396.88;;;15.02;66.01
63903;BME280;50072;50.678;13.938;2023-05-11T05:51:56;99403.66;;;15.11;65.76
63903;BME280;50072;50.678;13.938;2023-05-11T05:54:22;99385.78;;;15.27;66.05
63903;BME280;50072;50.678;13.938;2023-05-11T05:56:48;99397.41;;;15.47;64.98
63903;BME280;50072;50.678;13.938;2023-05-11T05:59:15;99399.50;;;15.59;64.91
63903;BME280;50072;50.678;13.938;2023-05-11T06:01:40;99406.75;;;15.76;63.41
63903;BME280;50072;50.678;13.938;2023-05-11T06:04:13;99400.03;;;15.85;62.98
63903;BME280;50072;50.678;13.938;2023-05-11T06:06:39;99400.50;;;15.93;62.64
63903;BME280;50072;50.678;13.938;2023-05-11T06:09:05;99400.22;;;15.99;60.49
63903;BME280;50072;50.678;13.938;2023-05-11T06:11:32;99408.84;;;16.06;61.03
63903;BME280;50072;50.678;13.938;2023-05-11T06:13:58;99406.06;;;15.90;60.81
63903;BME280;50072;50.678;13.938;2023-05-11T06:16:24;99411.50;;;15.71;60.65
63903;BME280;50072;50.678;13.938;2023-05-11T06:18:52;99410.31;;;15.59;60.20
63903;BME280;50072;50.678;13.938;2023-05-11T06:21:19;99411.47;;;15.53;60.25
63903;BME280;50072;50.678;13.938;2023-05-11T06:23:44;99417.53;;;15.40;59.76
63903;BME280;50072;50.678;13.938;2023-05-11T06:26:11;99415.88;;;15.37;60.88
63903;BME280;50072;50.678;13.938;2023-05-11T06:28:37;99412.75;;;15.27;60.86
63903;BME280;50072;50.678;13.938;2023-05-11T06:31:03;99418.09;;;15.10;61.23
63903;BME280;50072;50.678;13.938;2023-05-11T06:33:29;99418.94;;;15.10;62.19
63903;BME280;50072;50.678;13.938;2023-05-11T06:35:55;99422.38;;;15.14;62.08
63903;BME280;50072;50.678;13.938;2023-05-11T06:38:21;99422.03;;;15.02;61.40
63903;BME280;50072;50.678;13.938;2023-05-11T06:40:51;99419.47;;;14.99;62.25
63903;BME280;50072;50.678;13.938;2023-05-11T06:43:16;99418.56;;;14.99;62.05
63903;BME280;50072;50.678;13.938;2023-05-11T06:45:44;99420.25;;;15.01;62.21
63903;BME280;50072;50.678;13.938;2023-05-11T06:48:10;99418.44;;;15.02;61.64
63903;BME280;50072;50.678;13.938;2023-05-11T06:50:35;99427.09;;;15.09;62.01
63903;BME280;50072;50.678;13.938;2023-05-11T06:53:01;99422.09;;;15.01;62.24
63903;BME280;50072;50.678;13.938;2023-05-11T06:55:27;99420.19;;;15.03;62.48
63903;BME280;50072;50.678;13.938;2023-05-11T06:57:53;99423.03;;;15.00;61.92
63903;BME280;50072;50.678;13.938;2023-05-11T07:00:19;99423.56;;;15.08;62.63
63903;BME280;50072;50.678;13.938;2023-05-11T07:02:44;99429.66;;;15.12;62.41
63903;BME280;50072;50.678;13.938;2023-05-11T07:05:10;99423.84;;;15.21;61.99
63903;BME280;50072;50.678;13.938;2023-05-11T07:07:37;99428.28;;;15.22;61.17
63903;BME280;50072;50.678;13.938;2023-05-11T07:10:04;99431.34;;;15.33;61.06
63903;BME280;50072;50.678;13.938;2023-05-11T07:12:31;99421.19;;;15.39;60.87
63903;BME280;50072;50.678;13.938;2023-05-11T07:14:57;99426.22;;;15.46;61.47
63903;BME280;50072;50.678;13.938;2023-05-11T07:17:22;99423.44;;;15.48;60.31
63903;BME280;50072;50.678;13.938;2023-05-11T07:19:48;99431.81;;;15.61;59.86
63903;BME280;50072;50.678;13.938;2023-05-11T07:22:17;99428.72;;;15.68;60.10
63903;BME280;50072;50.678;13.938;2023-05-11T07:24:43;99432.44;;;15.85;59.50
63903;BME280;50072;50.678;13.938;2023-05-11T07:27:09;99431.00;;;15.95;60.01
63903;BME280;50072;50.678;13.938;2023-05-11T07:29:35;99434.25;;;16.19;58.84
63903;BME280;50072;50.678;13.938;2023-05-11T07:32:01;99442.03;;;16.26;57.85
63903;BME280;50072;50.678;13.938;2023-05-11T07:34:27;99440.22;;;16.26;56.69
63903;BME280;50072;50.678;13.938;2023-05-11T07:36:53;99436.25;;;16.33;57.29
63903;BME280;50072;50.678;13.938;2023-05-11T07:39:18;99438.63;;;16.39;57.53
63903;BME280;50072;50.678;13.938;2023-05-11T07:41:44;99446.22;;;16.49;56.95
63903;BME280;50072;50.678;13.938;2023-05-11T07:44:10;99437.88;;;16.53;55.72
63903;BME280;50072;50.678;13.938;2023-05-11T07:46:36;99437.47;;;16.61;56.67
63903;BME280;50072;50.678;13.938;2023-05-11T07:49:02;99446.50;;;16.78;56.03
63903;BME280;50072;50.678;13.938;2023-05-11T07:51:30;99446.81;;;16.89;55.42
63903;BME280;50072;50.678;13.938;2023-05-11T07:53:56;99443.19;;;17.06;55.97
63903;BME280;50072;50.678;13.938;2023-05-11T07:56:23;99450.97;;;17.28;56.07
63903;BME280;50072;50.678;13.938;2023-05-11T07:58:50;99446.63;;;17.41;55.07
63903;BME280;50072;50.678;13.938;2023-05-11T08:01:16;99441.91;;;17.29;53.95
63903;BME280;50072;50.678;13.938;2023-05-11T08:03:45;99448.34;;;17.42;54.73
63903;BME280;50072;50.678;13.938;2023-05-11T08:06:13;99440.50;;;17.54;55.15
63903;BME280;50072;50.678;13.938;2023-05-11T08:08:39;99452.69;;;17.77;54.93
63903;BME280;50072;50.678;13.938;2023-05-11T08:11:07;99446.22;;;17.80;53.48
63903;BME280;50072;50.678;13.938;2023-05-11T08:13:33;99442.84;;;17.92;53.29
63903;BME280;50072;50.678;13.938;2023-05-11T08:15:59;99449.72;;;17.98;52.88
63903;BME280;50072;50.678;13.938;2023-05-11T08:18:25;99447.28;;;17.93;52.42
63903;BME280;50072;50.678;13.938;2023-05-11T08:20:51;99435.38;;;17.96;53.80
63903;BME280;50072;50.678;13.938;2023-05-11T08:23:17;99439.63;;;18.16;53.67
63903;BME280;50072;50.678;13.938;2023-05-11T08:25:53;99438.22;;;18.39;52.93
63903;BME280;50072;50.678;13.938;2023-05-11T08:28:20;99435.03;;;18.46;51.78
63903;BME280;50072;50.678;13.938;2023-05-11T08:30:53;99438.56;;;18.77;53.07
63903;BME280;50072;50.678;13.938;2023-05-11T08:33:20;99440.53;;;19.04;51.10
63903;BME280;50072;50.678;13.938;2023-05-11T08:35:45;99439.66;;;18.89;50.88
63903;BME280;50072;50.678;13.938;2023-05-11T08:38:13;99442.44;;;19.02;50.30
63903;BME280;50072;50.678;13.938;2023-05-11T08:40:39;99444.00;;;19.21;49.28
63903;BME280;50072;50.678;13.938;2023-05-11T08:43:12;99432.25;;;19.35;49.42
63903;BME280;50072;50.678;13.938;2023-05-11T08:45:41;99434.97;;;19.62;50.11
63903;BME280;50072;50.678;13.938;2023-05-11T08:48:10;99447.47;;;19.79;48.09
63903;BME280;50072;50.678;13.938;2023-05-11T08:50:36;99438.53;;;19.77;46.82
63903;BME280;50072;50.678;13.938;2023-05-11T08:53:02;99434.28;;;20.00;48.52
63903;BME280;50072;50.678;13.938;2023-05-11T08:55:29;99441.03;;;20.07;47.23
63903;BME280;50072;50.678;13.938;2023-05-11T08:57:57;99436.56;;;20.06;45.63
63903;BME280;50072;50.678;13.938;2023-05-11T09:00:24;99439.97;;;20.10;46.17
63903;BME280;50072;50.678;13.938;2023-05-11T09:02:50;99440.97;;;20.22;45.85
63903;BME280;50072;50.678;13.938;2023-05-11T09:05:16;99442.19;;;20.56;45.02
63903;BME280;50072;50.678;13.938;2023-05-11T09:07:45;99439.81;;;20.51;45.27
63903;BME280;50072;50.678;13.938;2023-05-11T09:10:12;99453.41;;;20.51;44.42
63903;BME280;50072;50.678;13.938;2023-05-11T09:12:38;99452.25;;;20.15;45.15
63903;BME280;50072;50.678;13.938;2023-05-11T09:15:04;99442.44;;;20.66;44.74
63903;BME280;50072;50.678;13.938;2023-05-11T09:17:30;99441.69;;;20.64;43.52
63903;BME280;50072;50.678;13.938;2023-05-11T09:20:02;99445.94;;;20.94;43.85
63903;BME280;50072;50.678;13.938;2023-05-11T09:22:41;99446.44;;;21.25;44.66
63903;BME280;50072;50.678;13.938;2023-05-11T09:25:13;99431.50;;;21.30;43.24
63903;BME280;50072;50.678;13.938;2023-05-11T09:27:43;99440.94;;;20.88;42.21
63903;BME280;50072;50.678;13.938;2023-05-11T09:30:18;99439.91;;;21.27;43.03
63903;BME280;50072;50.678;13.938;2023-05-11T09:35:24;99438.66;;;21.57;41.71
63903;BME280;50072;50.678;13.938;2023-05-11T09:38:08;99437.84;;;21.92;41.39
63903;BME280;50072;50.678;13.938;2023-05-11T09:40:49;99439.34;;;22.32;40.53
63903;BME280;50072;50.678;13.938;2023-05-11T09:43:21;99441.66;;;22.14;40.69
63903;BME280;50072;50.678;13.938;2023-05-11T09:45:47;99439.31;;;21.61;41.05
63903;BME280;50072;50.678;13.938;2023-05-11T09:50:47;99435.00;;;22.53;40.64
63903;BME280;50072;50.678;13.938;2023-05-11T09:53:14;99434.09;;;22.41;38.92
63903;BME280;50072;50.678;13.938;2023-05-11T09:55:54;99428.69;;;22.64;41.80
63903;BME280;50072;50.678;13.938;2023-05-11T09:58:20;99431.78;;;22.60;39.28
63903;BME280;50072;50.678;13.938;2023-05-11T10:00:50;99439.38;;;22.90;38.16
63903;BME280;50072;50.678;13.938;2023-05-11T10:03:16;99428.63;;;23.22;36.89
63903;BME280;50072;50.678;13.938;2023-05-11T10:05:55;99429.59;;;23.33;36.54
63903;BME280;50072;50.678;13.938;2023-05-11T10:08:27;99417.59;;;23.68;37.62
63903;BME280;50072;50.678;13.938;2023-05-11T10:10:55;99422.94;;;24.34;37.37
63903;BME280;50072;50.678;13.938;2023-05-11T10:13:22;99423.09;;;24.75;33.87
63903;BME280;50072;50.678;13.938;2023-05-11T10:15:50;99412.25;;;24.31;34.42
63903;BME280;50072;50.678;13.938;2023-05-11T10:18:17;99418.63;;;24.74;34.86
63903;BME280;50072;50.678;13.938;2023-05-11T10:20:43;99415.66;;;24.87;33.89
63903;BME280;50072;50.678;13.938;2023-05-11T10:23:10;99397.88;;;24.50;33.97
63903;BME280;50072;50.678;13.938;2023-05-11T10:25:37;99405.88;;;24.42;34.65
63903;BME280;50072;50.678;13.938;2023-05-11T10:28:04;99400.06;;;24.56;35.08
63903;BME280;50072;50.678;13.938;2023-05-11T10:30:30;99407.16;;;25.21;33.79
63903;BME280;50072;50.678;13.938;2023-05-11T10:32:59;99408.81;;;26.03;32.15
63903;BME280;50072;50.678;13.938;2023-05-11T10:35:26;99396.41;;;26.28;30.97
63903;BME280;50072;50.678;13.938;2023-05-11T10:37:52;99402.84;;;25.98;31.82
63903;BME280;50072;50.678;13.938;2023-05-11T10:40:19;99392.91;;;26.36;32.35
63903;BME280;50072;50.678;13.938;2023-05-11T10:43:01;99394.03;;;27.00;29.97
63903;BME280;50072;50.678;13.938;2023-05-11T10:45:44;99378.81;;;26.88;30.54
63903;BME280;50072;50.678;13.938;2023-05-11T10:51:12;99380.28;;;28.20;29.38
63903;BME280;50072;50.678;13.938;2023-05-11T10:54:04;99376.59;;;28.82;27.56
63903;BME280;50072;50.678;13.938;2023-05-11T11:02:00;99373.06;;;30.74;25.77
63903;BME280;50072;50.678;13.938;2023-05-11T11:04:53;99382.47;;;31.52;24.43
63903;BME280;50072;50.678;13.938;2023-05-11T11:07:19;99370.75;;;31.02;23.88
63903;BME280;50072;50.678;13.938;2023-05-11T11:09:56;99388.03;;;31.44;23.16
63903;BME280;50072;50.678;13.938;2023-05-11T11:12:25;99375.56;;;32.34;22.48
63903;BME280;50072;50.678;13.938;2023-05-11T11:15:00;99387.59;;;32.94;21.41
63903;BME280;50072;50.678;13.938;2023-05-11T11:19:53;99374.97;;;33.73;21.08
63903;BME280;50072;50.678;13.938;2023-05-11T11:22:51;99387.03;;;32.46;21.49
63903;BME280;50072;50.678;13.938;2023-05-11T11:25:49;99387.06;;;29.04;24.55
63903;BME280;50072;50.678;13.938;2023-05-11T11:28:16;99372.97;;;27.01;27.15
63903;BME280;50072;50.678;13.938;2023-05-11T11:30:42;99381.66;;;25.90;29.01
63903;BME280;50072;50.678;13.938;2023-05-11T11:38:07;99388.88;;;23.41;33.75
63903;BME280;50072;50.678;13.938;2023-05-11T11:40:38;99380.22;;;23.02;34.30
63903;BME280;50072;50.678;13.938;2023-05-11T11:51:09;99383.97;;;21.96;35.29
63903;BME280;50072;50.678;13.938;2023-05-11T11:56:04;99392.88;;;21.86;35.72
63903;BME280;50072;50.678;13.938;2023-05-11T12:01:16;99386.22;;;21.91;35.57
63903;BME280;50072;50.678;13.938;2023-05-11T12:03:44;99387.91;;;21.92;35.30
63903;BME280;50072;50.678;13.938;2023-05-11T12:06:12;99386.91;;;22.17;35.61
63903;BME280;50072;50.678;13.938;2023-05-11T12:08:39;99395.72;;;22.32;34.75
63903;BME280;50072;50.678;13.938;2023-05-11T12:11:07;99376.69;;;22.43;33.56
63903;BME280;50072;50.678;13.938;2023-05-11T12:13:34;99390.34;;;22.54;33.65
63903;BME280;50072;50.678;13.938;2023-05-11T12:16:07;99386.16;;;22.50;33.18
63903;BME280;50072;50.678;13.938;2023-05-11T12:18:34;99382.09;;;22.32;33.60
63903;BME280;50072;50.678;13.938;2023-05-11T12:21:01;99394.38;;;22.26;33.17
63903;BME280;50072;50.678;13.938;2023-05-11T12:23:27;99380.34;;;22.19;33.35
63903;BME280;50072;50.678;13.938;2023-05-11T12:26:06;99390.09;;;22.35;33.53
63903;BME280;50072;50.678;13.938;2023-05-11T12:28:32;99382.69;;;22.60;33.23
63903;BME280;50072;50.678;13.938;2023-05-11T12:30:58;99386.88;;;22.52;32.76
63903;BME280;50072;50.678;13.938;2023-05-11T12:33:24;99382.03;;;22.56;32.74
63903;BME280;50072;50.678;13.938;2023-05-11T12:35:55;99383.69;;;22.70;32.88
63903;BME280;50072;50.678;13.938;2023-05-11T12:38:21;99378.47;;;22.55;32.22
63903;BME280;50072;50.678;13.938;2023-05-11T12:40:48;99379.22;;;22.80;32.31
63903;BME280;50072;50.678;13.938;2023-05-11T12:43:21;99367.94;;;22.85;32.59
63903;BME280;50072;50.678;13.938;2023-05-11T12:45:47;99371.91;;;23.15;33.85
63903;BME280;50072;50.678;13.938;2023-05-11T12:48:13;99367.16;;;23.28;32.48
63903;BME280;50072;50.678;13.938;2023-05-11T12:50:41;99360.59;;;23.31;31.69
63903;BME280;50072;50.678;13.938;2023-05-11T12:53:14;99368.53;;;23.34;30.87
63903;BME280;50072;50.678;13.938;2023-05-11T12:55:41;99363.28;;;23.42;31.26
63903;BME280;50072;50.678;13.938;2023-05-11T12:58:15;99368.44;;;23.13;31.05
63903;BME280;50072;50.678;13.938;2023-05-11T13:00:57;99362.13;;;23.12;30.85
63903;BME280;50072;50.678;13.938;2023-05-11T13:03:27;99363.94;;;23.23;30.64
63903;BME280;50072;50.678;13.938;2023-05-11T13:08:28;99355.06;;;23.53;29.38
63903;BME280;50072;50.678;13.938;2023-05-11T13:10:54;99352.91;;;23.68;30.26
63903;BME280;50072;50.678;13.938;2023-05-11T13:13:27;99356.19;;;23.83;29.73
63903;BME280;50072;50.678;13.938;2023-05-11T13:15:53;99353.69;;;23.59;30.08
63903;BME280;50072;50.678;13.938;2023-05-11T13:18:19;99368.06;;;23.61;29.11
63903;BME280;50072;50.678;13.938;2023-05-11T13:20:45;99358.91;;;23.94;28.82
63903;BME280;50072;50.678;13.938;2023-05-11T13:23:14;99361.41;;;24.19;29.25
63903;BME280;50072;50.678;13.938;2023-05-11T13:25:51;99351.16;;;24.00;30.04
63903;BME280;50072;50.678;13.938;2023-05-11T13:28:21;99355.16;;;23.95;28.93
63903;BME280;50072;50.678;13.938;2023-05-11T13:30:48;99347.56;;;23.99;29.36
63903;BME280;50072;50.678;13.938;2023-05-11T13:33:16;99346.19;;;24.05;29.10
63903;BME280;50072;50.678;13.938;2023-05-11T13:35:43;99353.38;;;24.27;28.49
63903;BME280;50072;50.678;13.938;2023-05-11T13:38:09;99357.34;;;24.44;27.72
63903;BME280;50072;50.678;13.938;2023-05-11T13:40:36;99356.00;;;24.07;27.93
63903;BME280;50072;50.678;13.938;2023-05-11T13:43:03;99360.97;;;23.70;28.78
63903;BME280;50072;50.678;13.938;2023-05-11T13:45:29;99351.59;;;23.51;28.95